createdAt,value
2022-11-27T00:01:10.792Z,6.31
2022-11-27T00:03:38.959Z,6.33
2022-11-27T00:06:09.531Z,6.33
2022-11-27T00:08:37.572Z,6.32
2022-11-27T00:11:07.934Z,6.33
2022-11-27T00:13:36.463Z,6.32
2022-11-27T00:16:05.254Z,6.33
2022-11-27T00:18:33.689Z,6.33
2022-11-27T00:21:04.508Z,6.33
2022-11-27T00:23:34.633Z,6.33
2022-11-27T00:26:03.009Z,6.32
2022-11-27T00:28:31.599Z,6.32
2022-11-27T00:31:00.632Z,6.32
2022-11-27T00:33:28.735Z,6.30
2022-11-27T00:35:56.707Z,6.31
2022-11-27T00:38:24.665Z,6.29
2022-11-27T00:40:53.878Z,6.31
2022-11-27T00:43:21.687Z,6.30
2022-11-27T00:45:50.559Z,6.29
2022-11-27T00:48:18.437Z,6.28
2022-11-27T00:50:46.277Z,6.29
2022-11-27T00:53:14.071Z,6.28
2022-11-27T00:55:42.005Z,6.28
2022-11-27T00:58:11.129Z,6.29
2022-11-27T01:00:39.140Z,6.29
2022-11-27T01:03:07.001Z,6.27
2022-11-27T01:05:37.297Z,6.29
2022-11-27T01:08:05.680Z,6.28
2022-11-27T01:10:33.614Z,6.27
2022-11-27T01:13:01.430Z,6.28
2022-11-27T01:15:30.681Z,6.27
2022-11-27T01:17:58.401Z,6.27
2022-11-27T01:20:26.286Z,6.25
2022-11-27T01:22:54.087Z,6.25
2022-11-27T01:25:26.654Z,6.24
2022-11-27T01:27:54.647Z,6.00
2022-11-27T01:30:22.429Z,6.18
2022-11-27T01:32:51.795Z,6.22
2022-11-27T01:35:19.828Z,6.21
2022-11-27T01:37:47.639Z,6.21
2022-11-27T01:40:15.835Z,6.19
2022-11-27T01:42:43.765Z,6.20
2022-11-27T01:45:15.101Z,6.20
2022-11-27T01:47:47.661Z,6.20
2022-11-27T01:50:22.328Z,6.20
2022-11-27T01:52:53.853Z,6.18
2022-11-27T01:55:29.785Z,6.21
2022-11-27T01:58:01.318Z,6.19
2022-11-27T02:00:29.299Z,6.16
2022-11-27T02:02:57.547Z,6.16
2022-11-27T02:05:29.138Z,6.19
2022-11-27T02:07:59.963Z,6.16
2022-11-27T02:10:37.776Z,6.16
2022-11-27T02:13:10.472Z,6.16
2022-11-27T02:15:45.534Z,6.16
2022-11-27T02:18:20.259Z,6.15
2022-11-27T02:20:55.495Z,6.17
2022-11-27T02:23:41.875Z,6.18
2022-11-27T02:26:24.044Z,6.17
2022-11-27T02:29:07.545Z,6.13
2022-11-27T02:31:41.747Z,6.15
2022-11-27T02:34:17.528Z,6.15
2022-11-27T02:36:54.347Z,6.14
2022-11-27T02:39:28.545Z,6.13
2022-11-27T02:42:02.672Z,6.11
2022-11-27T02:44:36.231Z,6.11
2022-11-27T02:47:06.524Z,6.10
2022-11-27T02:49:36.632Z,6.09
2022-11-27T02:52:09.144Z,6.08
2022-11-27T02:54:37.510Z,6.04
2022-11-27T02:57:06.692Z,6.05
2022-11-27T02:59:41.093Z,6.05
2022-11-27T03:02:12.989Z,6.04
2022-11-27T03:04:46.005Z,6.02
2022-11-27T03:07:15.903Z,5.77
2022-11-27T03:09:47.547Z,5.95
2022-11-27T03:12:17.213Z,5.96
2022-11-27T03:14:48.544Z,5.98
2022-11-27T03:17:28.821Z,5.97
2022-11-27T03:20:02.013Z,5.94
2022-11-27T03:22:31.716Z,5.91
2022-11-27T03:25:00.277Z,5.90
2022-11-27T03:27:33.703Z,5.89
2022-11-27T03:30:06.966Z,5.89
2022-11-27T03:32:34.908Z,5.86
2022-11-27T03:35:03.292Z,5.85
2022-11-27T03:37:31.123Z,5.83
2022-11-27T03:39:59.098Z,5.84
2022-11-27T03:42:32.003Z,5.85
2022-11-27T03:45:10.485Z,5.83
2022-11-27T03:47:49.435Z,5.83
2022-11-27T03:50:29.432Z,5.82
2022-11-27T03:53:09.331Z,5.83
2022-11-27T03:55:47.233Z,5.80
2022-11-27T03:58:21.149Z,5.81
2022-11-27T04:00:51.988Z,5.80
2022-11-27T04:03:25.696Z,5.81
2022-11-27T04:05:53.763Z,5.79
2022-11-27T04:08:22.049Z,5.79
2022-11-27T04:10:50.084Z,5.77
2022-11-27T04:13:18.205Z,5.79
2022-11-27T04:15:46.146Z,5.78
2022-11-27T04:18:15.737Z,5.79
2022-11-27T04:20:43.605Z,5.77
2022-11-27T04:23:11.422Z,5.77
2022-11-27T04:25:39.281Z,5.78
2022-11-27T04:28:07.124Z,5.79
2022-11-27T04:30:35.144Z,5.79
2022-11-27T04:33:02.989Z,5.78
2022-11-27T04:35:32.177Z,5.81
2022-11-27T04:37:59.919Z,5.79
2022-11-27T04:40:27.792Z,5.81
2022-11-27T04:42:55.806Z,5.80
2022-11-27T04:45:23.594Z,5.76
2022-11-27T04:47:51.348Z,5.78
2022-11-27T04:50:19.308Z,5.80
2022-11-27T04:52:48.432Z,5.80
2022-11-27T04:55:16.264Z,5.80
2022-11-27T04:57:44.088Z,5.80
2022-11-27T05:00:13.055Z,5.83
2022-11-27T05:02:40.858Z,5.82
2022-11-27T05:05:09.422Z,5.84
2022-11-27T05:07:37.584Z,5.83
2022-11-27T05:10:08.156Z,5.86
2022-11-27T05:12:36.029Z,5.84
2022-11-27T05:15:04.744Z,5.85
2022-11-27T05:17:32.976Z,5.86
2022-11-27T05:20:00.801Z,5.86
2022-11-27T05:22:28.623Z,5.88
2022-11-27T05:24:56.372Z,5.88
2022-11-27T05:27:25.551Z,5.90
2022-11-27T05:29:53.347Z,5.90
2022-11-27T05:32:21.198Z,5.90
2022-11-27T05:34:49.778Z,5.89
2022-11-27T05:37:19.698Z,5.89
2022-11-27T05:39:47.961Z,5.89
2022-11-27T05:42:15.743Z,5.89
2022-11-27T05:44:44.973Z,5.89
2022-11-27T05:47:12.766Z,5.88
2022-11-27T05:49:40.800Z,5.89
2022-11-27T05:52:08.551Z,5.89
2022-11-27T05:54:36.304Z,5.89
2022-11-27T05:57:04.129Z,5.89
2022-11-27T05:59:31.962Z,5.86
2022-11-27T06:02:01.174Z,5.86
2022-11-27T06:04:29.002Z,5.85
2022-11-27T06:06:56.729Z,5.86
2022-11-27T06:09:24.612Z,5.85
2022-11-27T06:11:52.455Z,5.84
2022-11-27T06:14:20.257Z,5.84
2022-11-27T06:16:48.065Z,5.84
2022-11-27T06:19:17.311Z,5.86
2022-11-27T06:21:46.445Z,5.85
2022-11-27T06:24:14.222Z,5.84
2022-11-27T06:26:42.132Z,5.84
2022-11-27T06:29:10.587Z,5.84
2022-11-27T06:31:38.469Z,5.84
2022-11-27T06:34:06.927Z,5.85
2022-11-27T06:36:38.581Z,5.87
2022-11-27T06:39:08.187Z,5.86
2022-11-27T06:41:35.970Z,5.86
2022-11-27T06:44:04.332Z,5.88
2022-11-27T06:46:32.257Z,5.88
2022-11-27T06:49:00.192Z,5.88
2022-11-27T06:51:31.017Z,5.91
2022-11-27T06:54:02.049Z,5.92
2022-11-27T06:56:31.608Z,5.92
2022-11-27T06:59:01.100Z,5.93
2022-11-27T07:01:30.625Z,5.94
2022-11-27T07:03:59.300Z,5.92
2022-11-27T07:06:28.066Z,5.90
2022-11-27T07:08:56.495Z,5.92
2022-11-27T07:11:28.155Z,5.93
2022-11-27T07:13:58.007Z,5.93
2022-11-27T07:16:27.048Z,5.91
2022-11-27T07:18:56.619Z,5.92
2022-11-27T07:21:24.920Z,5.90
2022-11-27T07:23:52.985Z,5.89
2022-11-27T07:26:22.519Z,5.90
2022-11-27T07:28:51.983Z,5.90
2022-11-27T07:31:22.154Z,5.90
2022-11-27T07:33:52.459Z,5.91
2022-11-27T07:36:22.194Z,5.91
2022-11-27T07:38:50.644Z,5.90
2022-11-27T07:41:19.134Z,5.91
2022-11-27T07:43:47.505Z,5.92
2022-11-27T07:46:19.353Z,5.94
2022-11-27T07:48:47.619Z,5.94
2022-11-27T07:51:18.692Z,5.95
2022-11-27T07:53:46.763Z,5.94
2022-11-27T07:56:16.394Z,5.96
2022-11-27T07:58:44.569Z,5.96
2022-11-27T08:01:15.105Z,5.98
2022-11-27T08:03:45.166Z,5.99
2022-11-27T08:06:21.523Z,6.02
2022-11-27T08:08:49.726Z,6.00
2022-11-27T08:11:19.221Z,6.04
2022-11-27T08:13:47.075Z,6.04
2022-11-27T08:16:14.939Z,6.03
2022-11-27T08:18:44.308Z,6.06
2022-11-27T08:21:12.162Z,6.06
2022-11-27T08:23:40.061Z,6.09
2022-11-27T08:26:08.449Z,6.10
2022-11-27T08:28:36.474Z,6.12
2022-11-27T08:31:06.493Z,6.15
2022-11-27T08:33:35.444Z,6.17
2022-11-27T08:36:08.481Z,6.19
2022-11-27T08:38:37.670Z,6.20
2022-11-27T08:41:07.183Z,6.23
2022-11-27T08:43:35.846Z,6.24
2022-11-27T08:46:04.691Z,6.26
2022-11-27T08:48:32.650Z,6.27
2022-11-27T08:51:00.397Z,6.29
2022-11-27T08:53:29.526Z,6.31
2022-11-27T08:56:05.611Z,6.32
2022-11-27T08:58:33.491Z,6.34
2022-11-27T09:01:08.564Z,6.37
2022-11-27T09:03:36.778Z,6.36
2022-11-27T09:06:08.000Z,6.41
2022-11-27T09:08:37.679Z,6.43
2022-11-27T09:11:05.768Z,6.43
2022-11-27T09:13:36.706Z,6.45
2022-11-27T09:16:05.289Z,6.45
2022-11-27T09:18:33.275Z,6.45
2022-11-27T09:21:02.919Z,6.49
2022-11-27T09:23:31.059Z,6.49
2022-11-27T09:26:01.542Z,6.51
2022-11-27T09:28:31.628Z,6.53
2022-11-27T09:31:01.463Z,6.54
2022-11-27T09:33:30.641Z,6.55
2022-11-27T09:35:58.507Z,6.56
2022-11-27T09:38:26.322Z,6.58
2022-11-27T09:41:03.273Z,6.61
2022-11-27T09:43:37.115Z,6.64
2022-11-27T09:46:09.193Z,6.67
2022-11-27T09:48:41.099Z,6.66
2022-11-27T09:51:16.234Z,6.72
2022-11-27T09:53:48.733Z,6.76
2022-11-27T09:56:19.993Z,6.76
2022-11-27T09:58:57.120Z,6.82
2022-11-27T10:01:34.888Z,6.82
2022-11-27T10:04:11.967Z,6.84
2022-11-27T10:06:55.942Z,6.87
2022-11-27T10:09:32.837Z,6.90
2022-11-27T10:12:10.190Z,6.94
2022-11-27T10:14:54.623Z,6.95
2022-11-27T10:17:30.678Z,6.96
2022-11-27T10:20:06.890Z,6.97
2022-11-27T10:22:44.190Z,6.99
2022-11-27T10:25:17.907Z,7.00
2022-11-27T10:27:58.449Z,7.02
2022-11-27T10:30:30.183Z,7.04
2022-11-27T10:33:01.340Z,7.06
2022-11-27T10:35:31.769Z,7.08
2022-11-27T10:38:07.100Z,7.08
2022-11-27T10:40:39.735Z,7.11
2022-11-27T10:43:14.167Z,7.12
2022-11-27T10:45:50.151Z,7.14
2022-11-27T10:48:18.643Z,7.15
2022-11-27T10:50:46.959Z,7.17
2022-11-27T10:53:20.890Z,7.19
2022-11-27T10:56:02.994Z,7.20
2022-11-27T10:58:35.031Z,7.20
2022-11-27T11:01:06.922Z,7.21
2022-11-27T11:03:35.813Z,7.22
2022-11-27T11:06:20.649Z,7.25
2022-11-27T11:08:50.543Z,7.24
2022-11-27T11:11:27.448Z,7.27
2022-11-27T11:13:55.936Z,7.26
2022-11-27T11:16:33.339Z,7.30
2022-11-27T11:19:03.025Z,7.29
2022-11-27T11:21:33.716Z,7.31
2022-11-27T11:24:05.064Z,7.30
2022-11-27T11:26:35.935Z,7.33
2022-11-27T11:29:07.371Z,7.34
2022-11-27T11:31:39.367Z,7.36
2022-11-27T11:34:19.351Z,7.34
2022-11-27T11:36:59.403Z,7.31
2022-11-27T11:39:30.246Z,7.32
2022-11-27T11:41:58.491Z,7.30
2022-11-27T11:44:33.621Z,7.35
2022-11-27T11:47:02.867Z,7.35
2022-11-27T11:49:32.812Z,7.35
2022-11-27T11:52:13.045Z,7.38
2022-11-27T11:54:52.084Z,7.35
2022-11-27T11:57:43.367Z,7.37
2022-11-27T12:00:15.243Z,7.37
2022-11-27T12:02:58.312Z,7.39
2022-11-27T12:05:34.746Z,7.37
2022-11-27T12:08:34.957Z,7.38
2022-11-27T12:11:10.793Z,7.41
2022-11-27T12:14:01.115Z,7.44
2022-11-27T12:16:42.608Z,7.44
2022-11-27T12:19:41.822Z,7.45
2022-11-27T12:22:21.604Z,7.48
2022-11-27T12:24:58.754Z,7.50
2022-11-27T12:27:40.737Z,7.53
2022-11-27T12:30:15.699Z,7.55
2022-11-27T12:33:04.137Z,7.56
2022-11-27T12:35:35.626Z,7.57
2022-11-27T12:38:21.029Z,7.61
2022-11-27T12:41:02.876Z,7.61
2022-11-27T12:43:36.332Z,7.63
2022-11-27T12:46:12.774Z,7.67
2022-11-27T12:48:44.437Z,7.67
2022-11-27T12:51:20.359Z,7.72
2022-11-27T12:53:52.211Z,7.73
2022-11-27T12:56:25.924Z,7.76
2022-11-27T12:58:57.664Z,7.77
2022-11-27T13:01:30.230Z,7.78
2022-11-27T13:04:11.524Z,7.80
2022-11-27T13:06:53.936Z,7.83
2022-11-27T13:09:28.857Z,7.83
2022-11-27T13:11:57.623Z,7.85
2022-11-27T13:14:27.695Z,7.90
2022-11-27T13:16:59.774Z,7.90
2022-11-27T13:19:33.087Z,7.91
2022-11-27T13:22:05.880Z,7.95
2022-11-27T13:24:34.852Z,7.94
2022-11-27T13:27:09.632Z,7.99
2022-11-27T13:29:43.921Z,8.01
2022-11-27T13:32:21.885Z,8.00
2022-11-27T13:34:52.560Z,8.00
2022-11-27T13:37:29.277Z,8.04
2022-11-27T13:40:03.955Z,8.05
2022-11-27T13:42:34.016Z,8.04
2022-11-27T13:45:05.574Z,8.06
2022-11-27T13:47:39.946Z,8.07
2022-11-27T13:50:11.474Z,8.08
2022-11-27T13:52:51.628Z,8.10
2022-11-27T13:55:26.147Z,8.09
2022-11-27T13:57:54.899Z,8.10
2022-11-27T14:00:33.823Z,8.13
2022-11-27T14:03:02.322Z,8.11
2022-11-27T14:05:40.024Z,8.15
2022-11-27T14:08:20.538Z,8.15
2022-11-27T14:10:53.662Z,8.11
2022-11-27T14:13:27.364Z,8.10
2022-11-27T14:16:02.593Z,8.12
2022-11-27T14:18:32.302Z,8.11
2022-11-27T14:21:02.408Z,8.12
2022-11-27T14:23:34.143Z,8.12
2022-11-27T14:26:04.176Z,8.12
2022-11-27T14:28:32.448Z,8.12
2022-11-27T14:31:02.340Z,8.14
2022-11-27T14:33:33.276Z,8.15
2022-11-27T14:36:08.631Z,8.15
2022-11-27T14:38:38.196Z,8.16
2022-11-27T14:41:10.464Z,8.16
2022-11-27T14:43:38.597Z,8.14
2022-11-27T14:46:09.650Z,8.17
2022-11-27T14:48:45.039Z,8.18
2022-11-27T14:51:17.471Z,8.18
2022-11-27T14:53:48.226Z,8.17
2022-11-27T14:56:17.355Z,8.17
2022-11-27T14:58:51.192Z,8.17
2022-11-27T15:01:25.503Z,8.17
2022-11-27T15:03:57.929Z,8.15
2022-11-27T15:06:27.619Z,8.13
2022-11-27T15:09:23.539Z,8.15
2022-11-27T15:12:00.507Z,8.12
2022-11-27T15:14:29.884Z,8.11
2022-11-27T15:16:58.949Z,8.10
2022-11-27T15:19:30.660Z,8.10
2022-11-27T15:21:59.496Z,8.09
2022-11-27T15:24:34.190Z,8.11
2022-11-27T15:27:17.333Z,8.10
2022-11-27T15:30:01.037Z,8.06
2022-11-27T15:32:45.656Z,8.07
2022-11-27T15:35:15.652Z,8.04
2022-11-27T15:37:43.771Z,8.03
2022-11-27T15:40:28.730Z,8.04
2022-11-27T15:42:56.633Z,7.98
2022-11-27T15:45:27.646Z,7.98
2022-11-27T15:47:59.424Z,7.99
2022-11-27T15:50:27.808Z,7.95
2022-11-27T15:52:55.608Z,7.93
2022-11-27T15:55:25.089Z,7.93
2022-11-27T15:57:52.862Z,7.90
2022-11-27T16:00:22.720Z,7.90
2022-11-27T16:02:52.426Z,7.90
2022-11-27T16:05:23.891Z,7.88
2022-11-27T16:07:55.205Z,7.87
2022-11-27T16:10:24.920Z,7.87
2022-11-27T16:12:55.325Z,7.85
2022-11-27T16:15:25.062Z,7.85
2022-11-27T16:17:55.511Z,7.82
2022-11-27T16:20:23.303Z,7.83
2022-11-27T16:22:51.264Z,7.82
2022-11-27T16:25:19.683Z,7.82
2022-11-27T16:27:49.109Z,7.83
2022-11-27T16:30:19.899Z,7.80
2022-11-27T16:32:48.447Z,7.79
2022-11-27T16:35:16.699Z,7.77
2022-11-27T16:37:45.763Z,7.78
2022-11-27T16:40:14.751Z,7.76
2022-11-27T16:42:42.761Z,7.73
2022-11-27T16:45:12.857Z,7.75
2022-11-27T16:47:40.756Z,7.69
2022-11-27T16:50:10.324Z,7.70
2022-11-27T16:52:38.435Z,7.69
2022-11-27T16:55:07.872Z,7.69
2022-11-27T16:57:36.383Z,7.69
2022-11-27T17:00:08.445Z,7.68
2022-11-27T17:02:38.537Z,7.67
2022-11-27T17:05:07.267Z,7.67
2022-11-27T17:07:35.662Z,7.68
2022-11-27T17:10:03.567Z,7.66
2022-11-27T17:12:36.388Z,7.65
2022-11-27T17:15:05.366Z,7.65
2022-11-27T17:17:39.970Z,7.62
2022-11-27T17:20:10.392Z,7.63
2022-11-27T17:22:38.602Z,7.62
2022-11-27T17:25:10.368Z,7.62
2022-11-27T17:27:38.376Z,7.61
2022-11-27T17:30:07.517Z,7.61
2022-11-27T17:32:35.674Z,7.58
2022-11-27T17:35:03.589Z,7.57
2022-11-27T17:37:33.095Z,7.58
2022-11-27T17:40:01.050Z,7.57
2022-11-27T17:42:28.923Z,7.56
2022-11-27T17:44:57.011Z,7.57
2022-11-27T17:47:24.903Z,7.56
2022-11-27T17:49:52.958Z,7.56
2022-11-27T17:52:20.932Z,7.56
2022-11-27T17:54:50.294Z,7.58
2022-11-27T17:57:18.626Z,7.55
2022-11-27T17:59:47.218Z,7.56
2022-11-27T18:02:15.113Z,7.54
2022-11-27T18:04:43.292Z,7.55
2022-11-27T18:07:11.450Z,7.54
2022-11-27T18:09:39.777Z,7.52
2022-11-27T18:12:09.674Z,7.55
2022-11-27T18:14:37.685Z,7.54
2022-11-27T18:17:07.193Z,7.54
2022-11-27T18:19:35.045Z,7.54
2022-11-27T18:22:03.056Z,7.54
2022-11-27T18:24:31.527Z,7.53
2022-11-27T18:27:08.137Z,7.52
2022-11-27T18:29:38.959Z,7.52
2022-11-27T18:32:08.267Z,7.51
2022-11-27T18:34:36.371Z,7.52
2022-11-27T18:37:04.793Z,7.52
2022-11-27T18:39:32.778Z,7.52
2022-11-27T18:42:01.044Z,7.52
2022-11-27T18:44:28.845Z,7.53
2022-11-27T18:46:58.239Z,7.55
2022-11-27T18:49:27.751Z,7.53
2022-11-27T18:51:56.454Z,7.54
2022-11-27T18:54:25.119Z,7.54
2022-11-27T18:56:53.124Z,7.55
2022-11-27T18:59:21.332Z,7.55
2022-11-27T19:01:49.850Z,7.56
2022-11-27T19:04:19.239Z,7.56
2022-11-27T19:06:47.643Z,7.55
2022-11-27T19:09:15.744Z,7.55
2022-11-27T19:11:45.037Z,7.54
2022-11-27T19:14:13.796Z,7.54
2022-11-27T19:16:46.642Z,7.55
2022-11-27T19:22:08.889Z,7.51
2022-11-27T19:24:37.634Z,7.51
2022-11-27T19:27:05.580Z,7.50
2022-11-27T19:29:33.574Z,7.48
2022-11-27T19:32:01.955Z,7.49
2022-11-27T19:34:30.265Z,7.47
2022-11-27T19:36:59.435Z,7.47
2022-11-27T19:39:28.823Z,7.46
2022-11-27T19:41:57.924Z,7.45
2022-11-27T19:44:25.974Z,7.45
2022-11-27T19:46:54.017Z,7.43
2022-11-27T19:49:21.913Z,7.43
2022-11-27T19:51:49.883Z,7.42
2022-11-27T19:54:20.658Z,7.43
2022-11-27T19:56:51.321Z,7.44
2022-11-27T19:59:25.616Z,7.44
2022-11-27T20:01:55.179Z,7.41
2022-11-27T20:04:28.268Z,7.38
2022-11-27T20:06:56.168Z,7.41
2022-11-27T20:09:24.544Z,7.41
2022-11-27T20:11:53.764Z,7.40
2022-11-27T20:14:21.662Z,7.38
2022-11-27T20:16:49.692Z,7.38
2022-11-27T20:19:19.110Z,7.38
2022-11-27T20:21:47.048Z,7.37
2022-11-27T20:24:14.944Z,7.37
2022-11-27T20:26:43.842Z,7.37
2022-11-27T20:29:13.937Z,7.39
2022-11-27T20:31:44.583Z,7.39
2022-11-27T20:34:17.990Z,7.39
2022-11-27T20:36:46.034Z,7.37
2022-11-27T20:39:20.594Z,7.38
2022-11-27T20:41:50.942Z,7.38
2022-11-27T20:44:20.258Z,7.39
2022-11-27T20:46:48.356Z,7.36
2022-11-27T20:49:17.844Z,7.37
2022-11-27T20:51:46.652Z,7.36
2022-11-27T20:54:14.576Z,7.37
2022-11-27T20:56:43.321Z,7.34
2022-11-27T20:59:12.487Z,7.36
2022-11-27T21:01:42.526Z,7.39
2022-11-27T21:04:20.488Z,7.38
2022-11-27T21:06:48.755Z,7.34
2022-11-27T21:09:17.202Z,7.35
2022-11-27T21:11:46.174Z,7.36
2022-11-27T21:14:15.910Z,7.35
2022-11-27T21:16:48.994Z,7.36
2022-11-27T21:19:19.889Z,7.32
2022-11-27T21:21:48.276Z,7.33
2022-11-27T21:24:16.914Z,7.31
2022-11-27T21:26:49.475Z,7.30
2022-11-27T21:29:17.607Z,7.25
2022-11-27T21:31:47.603Z,7.26
2022-11-27T21:34:19.275Z,7.23
2022-11-27T21:36:47.197Z,7.21
2022-11-27T21:39:20.453Z,7.18
2022-11-27T21:41:50.549Z,7.18
2022-11-27T21:44:20.491Z,7.16
2022-11-27T21:46:50.348Z,7.16
2022-11-27T21:49:21.155Z,7.15
2022-11-27T21:51:52.023Z,7.14
2022-11-27T21:54:20.320Z,7.12
2022-11-27T21:56:52.640Z,7.11
2022-11-27T21:59:21.015Z,7.07
2022-11-27T22:01:50.445Z,7.08
2022-11-27T22:04:18.837Z,7.05
2022-11-27T22:06:47.082Z,7.03
2022-11-27T22:09:16.234Z,7.00
2022-11-27T22:11:44.854Z,6.99
2022-11-27T22:14:13.402Z,6.99
2022-11-27T22:16:45.339Z,6.98
2022-11-27T22:19:15.556Z,6.95
2022-11-27T22:21:44.400Z,6.95
2022-11-27T22:24:18.300Z,6.93
2022-11-27T22:26:48.204Z,6.91
2022-11-27T22:29:16.104Z,6.91
2022-11-27T22:31:44.080Z,6.91
2022-11-27T22:34:11.897Z,6.88
2022-11-27T22:36:41.858Z,6.89
2022-11-27T22:39:09.985Z,6.86
2022-11-27T22:41:39.555Z,6.86
2022-11-27T22:44:07.787Z,6.85
2022-11-27T22:46:37.615Z,6.82
2022-11-27T22:49:07.614Z,6.82
2022-11-27T22:51:37.214Z,6.81
2022-11-27T22:54:08.053Z,6.81
2022-11-27T22:56:36.276Z,6.79
2022-11-27T22:59:31.139Z,6.78
2022-11-27T23:01:54.998Z,6.77
2022-11-27T23:04:22.944Z,6.77
2022-11-27T23:06:51.555Z,6.75
2022-11-27T23:09:20.820Z,6.75
2022-11-27T23:11:49.055Z,6.72
2022-11-27T23:14:16.859Z,6.71
2022-11-27T23:16:44.749Z,6.69
2022-11-27T23:19:13.200Z,6.67
2022-11-27T23:21:41.052Z,6.63
2022-11-27T23:24:12.320Z,6.62
2022-11-27T23:26:41.584Z,6.60
2022-11-27T23:29:09.996Z,6.58
2022-11-27T23:31:37.879Z,6.56
2022-11-27T23:34:08.906Z,6.55
2022-11-27T23:36:38.547Z,6.52
2022-11-27T23:39:09.309Z,6.51
2022-11-27T23:41:37.307Z,6.49
2022-11-27T23:44:06.623Z,6.48
2022-11-27T23:46:34.435Z,6.43
2022-11-27T23:49:02.321Z,6.44
2022-11-27T23:51:31.834Z,6.43
2022-11-27T23:54:00.366Z,6.43
2022-11-27T23:56:30.545Z,6.41
2022-11-27T23:58:59.084Z,6.41
